Time;durP1;ratioP1;P1;durP2;ratioP2;P2;SDS_P1;SDS_P2;PMS_P1;PMS_P2;Temp;Humidity;BMP_temperature;BMP_pressure;BME280_temperature;BME280_humidity;BME280_pressure;Samples;Min_cycle;Max_cycle;Signal;HPM_P1;HPM_P2
2022/09/02 00:01:50;;;;;;;5.63;4.63;;;9.60;99.90;;;;;;8276994;28;20523;-77
2022/09/02 00:05:50;;;;;;;5.10;4.60;;;9.50;99.90;;;;;;8276121;28;20018;-78
2022/09/02 00:09:51;;;;;;;8.23;5.18;;;9.40;99.90;;;;;;8293035;28;20030;-79
2022/09/02 00:13:51;;;;;;;6.60;4.70;;;9.40;99.90;;;;;;8293115;28;20077;-78
2022/09/02 00:17:53;;;;;;;5.50;4.68;;;9.20;99.90;;;;;;8293787;28;20115;-78
2022/09/02 00:21:55;;;;;;;5.57;4.68;;;9.20;99.90;;;;;;8294194;28;20506;-78
2022/09/02 00:25:57;;;;;;;6.10;4.93;;;9.20;99.90;;;;;;8293162;28;20014;-78
2022/09/02 00:29:57;;;;;;;4.95;4.50;;;9.10;99.90;;;;;;8292815;28;20112;-78
2022/09/02 00:33:58;;;;;;;6.18;4.97;;;9.00;99.90;;;;;;8293944;28;20029;-78
2022/09/02 00:37:59;;;;;;;7.60;5.97;;;9.00;99.90;;;;;;8276064;28;20495;-78
2022/09/02 00:42:00;;;;;;;8.65;5.97;;;9.10;99.90;;;;;;8292476;28;20033;-78
2022/09/02 00:46:01;;;;;;;5.60;4.85;;;9.10;99.90;;;;;;8292133;28;20021;-77
2022/09/02 00:50:06;;;;;;;6.80;4.80;;;8.90;99.90;;;;;;8293618;28;20053;-78
2022/09/02 00:54:08;;;;;;;6.55;5.25;;;8.90;99.90;;;;;;8284628;28;20044;-78
2022/09/02 00:58:15;;;;;;;7.05;4.80;;;8.80;99.90;;;;;;8275316;28;20018;-78
2022/09/02 01:02:16;;;;;;;7.25;4.85;;;8.90;99.90;;;;;;8293145;28;20235;-78
2022/09/02 01:06:20;;;;;;;9.23;5.65;;;8.80;99.90;;;;;;8274216;28;20026;-77
2022/09/02 01:10:25;;;;;;;8.15;6.18;;;8.80;99.90;;;;;;8303735;22;20041;-81
2022/09/02 01:14:27;;;;;;;6.80;5.85;;;8.80;99.90;;;;;;8328160;28;20030;-81
2022/09/02 01:18:29;;;;;;;7.63;6.07;;;8.70;99.90;;;;;;8317034;28;20390;-81
2022/09/02 01:22:32;;;;;;;10.98;6.10;;;8.70;99.90;;;;;;8295607;28;20109;-81
2022/09/02 01:26:32;;;;;;;8.45;6.13;;;8.80;99.90;;;;;;8291616;28;20041;-80
2022/09/02 01:30:35;;;;;;;7.55;5.68;;;8.70;99.90;;;;;;8324522;28;20035;-80
2022/09/02 01:34:36;;;;;;;7.57;5.95;;;8.60;99.90;;;;;;8301372;28;20503;-80
2022/09/02 01:38:37;;;;;;;6.40;5.30;;;8.50;99.90;;;;;;8288909;28;20088;-80
2022/09/02 01:42:42;;;;;;;7.03;5.50;;;8.50;99.90;;;;;;8321063;28;20018;-80
2022/09/02 01:46:43;;;;;;;8.27;5.97;;;8.40;99.90;;;;;;8310362;28;20428;-80
2022/09/02 01:50:55;;;;;;;7.78;5.88;;;8.40;99.90;;;;;;8296976;28;20044;-79
2022/09/02 01:54:56;;;;;;;7.13;6.43;;;8.50;99.90;;;;;;8307649;28;20080;-80
2022/09/02 01:58:57;;;;;;;8.45;6.35;;;8.40;99.90;;;;;;8306185;28;20108;-81
2022/09/02 02:02:57;;;;;;;6.97;6.03;;;8.40;99.90;;;;;;8296546;28;20014;-80
2022/09/02 02:06:58;;;;;;;9.35;5.47;;;8.30;99.90;;;;;;8299328;28;20030;-81
2022/09/02 02:10:59;;;;;;;9.15;6.32;;;8.20;99.90;;;;;;8324061;28;20022;-81
2022/09/02 02:15:03;;;;;;;7.97;6.38;;;8.30;99.90;;;;;;8331473;28;20021;-81
2022/09/02 02:19:04;;;;;;;8.25;5.93;;;8.30;99.90;;;;;;8303311;28;20032;-80
2022/09/02 02:23:05;;;;;;;6.13;5.20;;;8.20;99.90;;;;;;8298063;28;20498;-79
2022/09/02 02:27:06;;;;;;;8.20;5.25;;;8.10;99.90;;;;;;8291299;28;20114;-81
2022/09/02 02:31:07;;;;;;;6.00;5.20;;;7.90;99.90;;;;;;8325678;28;20025;-80
2022/09/02 02:35:08;;;;;;;5.72;5.10;;;7.90;99.90;;;;;;8291059;28;20029;-80
2022/09/02 02:39:10;;;;;;;8.98;5.75;;;7.70;99.90;;;;;;8292537;28;20113;-80
2022/09/02 02:43:10;;;;;;;7.63;5.75;;;7.70;99.90;;;;;;8307166;28;20018;-80
2022/09/02 02:47:11;;;;;;;7.90;6.25;;;7.70;99.90;;;;;;8290585;28;20029;-80
2022/09/02 02:51:12;;;;;;;6.80;5.57;;;7.70;99.90;;;;;;8309436;28;20480;-80
2022/09/02 02:55:13;;;;;;;6.47;5.20;;;7.60;99.90;;;;;;8282858;28;20033;-80
2022/09/02 02:59:13;;;;;;;6.95;5.93;;;7.50;99.90;;;;;;8309443;28;20025;-80
2022/09/02 03:03:18;;;;;;;8.10;6.20;;;7.40;99.90;;;;;;8298053;28;20411;-78
2022/09/02 03:07:19;;;;;;;10.98;6.53;;;7.40;99.90;;;;;;8292688;28;20018;-80
2022/09/02 03:11:21;;;;;;;7.57;6.13;;;7.40;99.90;;;;;;8285864;28;20033;-78
2022/09/02 03:15:21;;;;;;;8.70;6.95;;;7.40;99.90;;;;;;8308789;28;20024;-80
2022/09/02 03:19:22;;;;;;;7.80;6.18;;;7.40;99.90;;;;;;8317618;28;20369;-80
2022/09/02 03:23:22;;;;;;;10.88;6.95;;;7.40;99.90;;;;;;8324729;28;20017;-80
2022/09/02 03:27:23;;;;;;;7.80;6.00;;;7.30;99.90;;;;;;8305137;28;20013;-80
2022/09/02 03:31:25;;;;;;;8.93;6.50;;;7.30;99.90;;;;;;8294118;28;20033;-79
2022/09/02 03:35:27;;;;;;;7.95;6.30;;;7.30;99.90;;;;;;8296535;28;20026;-81
2022/09/02 03:39:28;;;;;;;13.00;6.45;;;7.20;99.90;;;;;;8302450;28;20164;-81
2022/09/02 03:43:29;;;;;;;10.50;6.95;;;7.20;99.90;;;;;;8304357;28;20022;-80
2022/09/02 03:47:30;;;;;;;8.23;6.88;;;7.10;99.90;;;;;;8283490;28;20021;-80
2022/09/02 03:51:30;;;;;;;8.35;6.88;;;7.10;99.90;;;;;;8294791;28;20026;-80
2022/09/02 03:55:31;;;;;;;8.93;6.45;;;7.10;99.90;;;;;;8326065;28;20021;-80
2022/09/02 03:59:32;;;;;;;8.57;7.03;;;7.00;99.90;;;;;;8288575;28;20091;-80
2022/09/02 04:03:32;;;;;;;10.30;7.32;;;7.10;99.90;;;;;;8291285;28;20022;-80
2022/09/02 04:07:33;;;;;;;8.75;6.75;;;7.10;99.90;;;;;;8271483;28;20030;-80
2022/09/02 04:11:34;;;;;;;10.45;7.57;;;7.00;99.90;;;;;;8266865;28;20037;-81
2022/09/02 04:15:38;;;;;;;9.80;7.85;;;6.90;99.90;;;;;;8273977;28;20014;-79
2022/09/02 04:19:39;;;;;;;10.75;7.72;;;7.00;99.90;;;;;;8311485;28;20518;-80
2022/09/02 04:23:40;;;;;;;11.00;8.73;;;7.10;99.90;;;;;;8312814;28;20098;-78
2022/09/02 04:27:40;;;;;;;11.93;7.57;;;7.10;99.90;;;;;;8308561;28;20021;-79
2022/09/02 04:31:41;;;;;;;14.27;8.20;;;7.00;99.90;;;;;;8311965;28;20033;-80
2022/09/02 04:35:43;;;;;;;11.02;8.15;;;7.00;99.90;;;;;;8290973;28;20025;-79
2022/09/02 04:39:44;;;;;;;10.10;7.60;;;7.00;99.90;;;;;;8310407;28;20438;-79
2022/09/02 04:43:45;;;;;;;12.30;8.27;;;6.90;99.90;;;;;;8276523;28;20030;-80
2022/09/02 04:47:45;;;;;;;10.77;8.18;;;6.90;99.90;;;;;;8269091;28;20025;-80
2022/09/02 04:51:46;;;;;;;12.23;8.88;;;6.90;99.90;;;;;;8297829;28;20037;-79
2022/09/02 04:55:47;;;;;;;13.57;9.02;;;6.90;99.90;;;;;;8297470;28;20025;-80
2022/09/02 04:59:47;;;;;;;15.90;9.80;;;7.10;99.90;;;;;;8290293;28;20029;-79
2022/09/02 05:03:50;;;;;;;12.07;9.00;;;7.30;99.90;;;;;;8313709;28;20025;-80
2022/09/02 05:07:51;;;;;;;10.90;8.90;;;7.40;99.90;;;;;;8301720;28;20467;-80
2022/09/02 05:11:56;;;;;;;10.88;7.75;;;7.40;99.90;;;;;;8279504;28;20046;-79
2022/09/02 05:15:56;;;;;;;10.95;7.82;;;7.60;99.90;;;;;;8267824;28;20425;-80
2022/09/02 05:19:57;;;;;;;11.52;7.57;;;7.50;99.90;;;;;;8300530;28;20022;-79
2022/09/02 05:23:58;;;;;;;9.18;6.65;;;7.60;99.90;;;;;;8311955;28;20029;-80
2022/09/02 05:27:58;;;;;;;9.00;6.88;;;7.70;99.90;;;;;;8282042;28;20113;-79
2022/09/02 05:31:59;;;;;;;11.77;8.40;;;7.70;99.90;;;;;;8296865;28;20033;-80
2022/09/02 05:36:01;;;;;;;13.68;8.18;;;7.80;99.90;;;;;;8285085;28;20043;-80
2022/09/02 05:40:03;;;;;;;11.63;8.52;;;7.90;99.90;;;;;;8309617;28;20629;-80
2022/09/02 05:44:05;;;;;;;10.55;7.10;;;8.20;99.90;;;;;;8286217;28;20088;-80
2022/09/02 05:49:04;;;;;;;13.18;7.38;;;8.40;99.90;;;;;;8294249;28;20022;-80
2022/09/02 05:52:27;;;;;;;13.35;10.00;;;8.40;99.90;;;;;;8303262;28;20014;-80
2022/09/02 05:56:28;;;;;;;12.35;9.35;;;8.50;99.90;;;;;;8289638;28;20418;-81
2022/09/02 06:00:29;;;;;;;12.18;9.18;;;8.60;99.90;;;;;;8279782;28;20032;-80
2022/09/02 06:04:30;;;;;;;13.68;8.70;;;8.80;99.90;;;;;;8284651;28;20028;-79
2022/09/02 06:08:32;;;;;;;10.93;9.15;;;9.00;99.90;;;;;;8285689;28;20018;-80
2022/09/02 06:12:33;;;;;;;12.70;9.30;;;9.50;99.90;;;;;;8293835;28;20057;-80
2022/09/02 06:16:34;;;;;;;16.77;11.20;;;9.50;99.90;;;;;;8285601;28;20033;-80
2022/09/02 06:20:43;;;;;;;18.58;13.15;;;10.00;99.90;;;;;;8294205;28;20033;-80
2022/09/02 06:24:44;;;;;;;15.43;10.50;;;10.30;99.90;;;;;;8285635;28;20053;-80
2022/09/02 06:28:44;;;;;;;14.20;10.98;;;10.70;99.90;;;;;;8321352;28;20021;-80
2022/09/02 06:32:45;;;;;;;11.80;10.50;;;10.90;99.90;;;;;;8285148;28;20033;-81
2022/09/02 06:36:48;;;;;;;15.23;9.98;;;11.10;99.90;;;;;;8301104;28;20018;-81
2022/09/02 06:40:51;;;;;;;13.98;10.30;;;11.20;99.90;;;;;;8307297;28;20116;-80
2022/09/02 06:44:51;;;;;;;13.48;10.52;;;11.30;99.90;;;;;;8309108;28;20049;-81
2022/09/02 06:48:52;;;;;;;12.27;10.13;;;11.60;99.90;;;;;;8313628;28;20026;-80
2022/09/02 06:52:52;;;;;;;10.57;9.27;;;11.80;99.90;;;;;;8300836;28;20022;-79
2022/09/02 06:56:53;;;;;;;12.32;9.27;;;11.90;99.90;;;;;;8319540;28;20372;-81
2022/09/02 07:00:54;;;;;;;10.10;9.00;;;12.10;99.90;;;;;;8294194;28;20022;-81
2022/09/02 07:05:10;;;;;;;10.25;7.60;;;12.30;99.90;;;;;;8310025;28;20024;-80
2022/09/02 07:09:14;;;;;;;12.05;7.20;;;12.60;99.90;;;;;;8321358;28;20049;-81
2022/09/02 07:13:15;;;;;;;7.35;6.65;;;12.80;99.90;;;;;;8295024;28;20088;-79
2022/09/02 07:17:20;;;;;;;7.18;6.25;;;13.00;99.90;;;;;;8301196;28;20480;-81
2022/09/02 07:21:21;;;;;;;7.63;6.57;;;13.30;99.90;;;;;;8292748;28;20022;-80
2022/09/02 07:25:21;;;;;;;6.35;5.38;;;13.60;99.90;;;;;;8314671;28;20025;-81
2022/09/02 07:29:22;;;;;;;5.55;5.05;;;13.90;99.90;;;;;;8296092;28;20259;-81
2022/09/02 07:33:23;;;;;;;7.55;5.63;;;14.30;99.90;;;;;;8316801;28;20454;-81
2022/09/02 07:37:24;;;;;;;5.47;4.78;;;14.80;99.90;;;;;;8287050;28;20029;-80
2022/09/02 07:41:24;;;;;;;6.13;4.00;;;15.50;99.90;;;;;;8312343;28;20052;-82
2022/09/02 07:45:25;;;;;;;4.60;4.03;;;15.90;99.90;;;;;;8287168;28;21231;-82
2022/09/02 07:49:26;;;;;;;4.57;3.92;;;16.50;99.90;;;;;;8309042;28;20526;-81
2022/09/02 07:53:27;;;;;;;4.00;3.65;;;16.70;99.90;;;;;;8345543;28;20022;-81
2022/09/02 07:57:28;;;;;;;4.35;3.65;;;17.10;99.90;;;;;;8306569;28;20025;-82
2022/09/02 08:01:29;;;;;;;4.75;3.50;;;17.50;99.90;;;;;;8311356;28;20639;-81
2022/09/02 08:05:31;;;;;;;6.68;3.90;;;17.30;99.90;;;;;;8288287;28;20450;-80
2022/09/02 08:09:32;;;;;;;4.60;3.65;;;17.50;99.90;;;;;;8293445;28;20029;-81
2022/09/02 08:13:34;;;;;;;3.72;3.40;;;17.80;99.90;;;;;;8301364;28;20395;-81
2022/09/02 08:17:35;;;;;;;6.32;4.28;;;17.90;99.90;;;;;;8300451;28;20032;-81
2022/09/02 08:21:36;;;;;;;5.75;3.63;;;17.70;99.90;;;;;;8295847;28;20519;-81
2022/09/02 08:25:37;;;;;;;6.25;3.72;;;18.20;99.90;;;;;;8280154;28;20018;-81
2022/09/02 08:29:37;;;;;;;4.82;3.75;;;18.50;99.90;;;;;;8295323;28;20022;-80
2022/09/02 08:33:38;;;;;;;4.32;3.58;;;18.60;99.90;;;;;;8297497;28;20036;-81
2022/09/02 08:37:38;;;;;;;4.70;4.03;;;18.70;99.90;;;;;;8296349;28;20409;-81
2022/09/02 08:41:50;;;;;;;3.40;3.10;;;18.40;99.90;;;;;;8286917;28;20531;-81
2022/09/02 08:45:54;;;;;;;4.30;3.67;;;18.50;99.90;;;;;;8286233;28;20523;-81
2022/09/02 08:50:02;;;;;;;4.32;3.75;;;18.50;99.90;;;;;;8296850;28;20033;-81
2022/09/02 08:54:07;;;;;;;3.78;3.38;;;18.70;99.90;;;;;;8284778;28;20034;-80
2022/09/02 08:58:18;;;;;;;4.15;3.60;;;19.00;99.90;;;;;;8297317;28;20030;-82
2022/09/02 09:02:36;;;;;;;4.03;3.60;;;19.50;99.90;;;;;;8306877;28;20030;-81
2022/09/02 09:07:18;;;;;;;5.00;3.38;;;19.80;99.90;;;;;;8307962;28;20387;-82
2022/09/02 09:11:37;;;;;;;3.47;3.17;;;19.90;99.90;;;;;;8286444;28;20046;-82
2022/09/02 09:15:37;;;;;;;4.43;3.22;;;20.50;99.90;;;;;;8290052;28;20069;-82
2022/09/02 09:19:52;;;;;;;3.17;2.88;;;20.80;99.90;;;;;;8296382;28;20084;-81
2022/09/02 09:23:54;;;;;;;3.80;3.20;;;21.00;99.90;;;;;;8296067;28;20022;-80
2022/09/02 09:27:59;;;;;;;4.78;4.28;;;21.10;99.90;;;;;;8292640;28;20018;-82
2022/09/02 09:32:00;;;;;;;3.83;3.40;;;20.80;99.90;;;;;;8285250;28;20026;-82
2022/09/02 09:36:04;;;;;;;4.60;3.00;;;20.80;99.90;;;;;;8293183;28;20025;-82
2022/09/02 09:40:24;;;;;;;4.75;3.10;;;21.10;99.90;;;;;;8295343;28;20535;-82
2022/09/02 09:44:45;;;;;;;3.22;2.92;;;21.30;99.90;;;;;;8291112;28;20444;-81
2022/09/02 09:48:50;;;;;;;;;;;21.30;99.90;;;;;;8281972;28;20021;-80
2022/09/02 09:52:50;;;;;;;5.45;3.17;;;21.10;99.90;;;;;;8310867;28;19945;-82
2022/09/02 09:56:52;;;;;;;3.67;3.08;;;21.10;99.90;;;;;;8287595;28;20026;-82
2022/09/02 10:00:57;;;;;;;3.67;3.25;;;21.10;99.90;;;;;;8297924;28;20021;-81
2022/09/02 10:05:16;;;;;;;4.07;3.10;;;21.30;99.90;;;;;;8279137;28;20109;-81
2022/09/02 10:09:27;;;;;;;7.95;4.05;;;21.50;99.90;;;;;;8289365;28;20029;-82
2022/09/02 10:13:30;;;;;;;4.90;3.75;;;21.40;99.90;;;;;;8307700;28;20040;-82
2022/09/02 10:17:41;;;;;;;3.90;3.50;;;21.20;99.90;;;;;;8299642;28;20049;-82
2022/09/02 10:21:47;;;;;;;3.80;3.50;;;20.80;99.90;;;;;;8323029;28;20026;-81
2022/09/02 10:26:26;;;;;;;6.32;3.72;;;20.60;99.90;;;;;;8315875;28;20029;-82
2022/09/02 10:30:31;;;;;;;3.95;3.53;;;21.10;99.90;;;;;;8310077;28;20060;-82
2022/09/02 10:34:45;;;;;;;3.47;2.97;;;22.20;99.90;;;;;;8302022;28;20025;-82
2022/09/02 10:38:47;;;;;;;3.28;2.95;;;22.60;99.90;;;;;;8293066;28;20076;-82
2022/09/02 10:43:00;;;;;;;2.75;2.55;;;22.60;99.90;;;;;;8299755;28;20033;-82
2022/09/02 10:47:16;;;;;;;3.15;2.80;;;23.80;99.90;;;;;;8305179;28;20125;-81
2022/09/02 10:51:46;;;;;;;4.45;2.60;;;24.10;99.90;;;;;;8280650;28;20021;-82
2022/09/02 10:56:06;;;;;;;3.42;3.10;;;24.90;99.90;;;;;;8303726;28;20030;-81
2022/09/02 11:00:26;;;;;;;3.90;3.08;;;25.10;99.90;;;;;;8306574;28;20051;-81
2022/09/02 11:04:46;;;;;;;;;;;25.10;99.90;;;;;;8301396;28;20033;-82
2022/09/02 11:08:54;;;;;;;3.78;3.15;;;25.10;99.90;;;;;;8308582;28;19909;-82
2022/09/02 11:13:18;;;;;;;3.60;2.60;;;23.20;99.90;;;;;;8285437;28;20034;-81
2022/09/02 11:17:37;;;;;;;2.92;2.63;;;23.80;99.90;;;;;;8298784;28;20092;-82
2022/09/02 11:22:02;;;;;;;2.85;2.50;;;25.70;99.90;;;;;;8318180;28;20533;-82
2022/09/02 11:26:26;;;;;;;3.33;2.42;;;26.00;99.90;;;;;;8314108;28;20014;-81
2022/09/02 11:30:59;;;;;;;4.15;2.53;;;26.10;99.90;;;;;;8302317;28;20116;-82
2022/09/02 11:35:05;;;;;;;2.47;2.17;;;25.70;99.90;;;;;;8282576;28;20030;-82
2022/09/02 11:39:15;;;;;;;2.47;2.00;;;26.60;99.90;;;;;;8288727;28;20055;-82
2022/09/02 11:43:51;;;;;;;3.78;2.40;;;27.20;99.90;;;;;;8286026;28;20471;-81
2022/09/02 11:48:28;;;;;;;2.33;2.13;;;27.90;98.40;;;;;;8297113;28;20587;-82
2022/09/02 11:52:44;;;;;;;3.08;2.40;;;27.20;97.50;;;;;;8303771;28;20029;-83
2022/09/02 11:56:57;;;;;;;3.75;2.17;;;26.60;98.30;;;;;;8316553;28;20591;-82
2022/09/02 12:00:57;;;;;;;2.30;1.90;;;26.80;98.20;;;;;;8318989;28;20025;-83
2022/09/02 12:05:38;;;;;;;2.60;1.80;;;26.90;97.90;;;;;;8281970;28;20029;-82
2022/09/02 12:09:55;;;;;;;2.50;2.30;;;26.80;96.60;;;;;;8296531;28;20040;-82
2022/09/02 12:13:57;;;;;;;2.40;2.20;;;26.60;96.90;;;;;;8289230;28;20030;-83
2022/09/02 12:17:58;;;;;;;2.50;2.05;;;26.90;94.10;;;;;;8297775;28;20045;-82
2022/09/02 12:22:20;;;;;;;1.73;1.60;;;28.20;91.50;;;;;;8292422;28;20029;-82
2022/09/02 12:26:49;;;;;;;3.03;1.92;;;29.20;91.50;;;;;;8305516;28;20017;-83
2022/09/02 12:31:07;;;;;;;2.15;1.83;;;28.90;89.70;;;;;;8310101;28;20546;-81
2022/09/02 12:35:12;;;;;;;2.55;1.85;;;28.10;92.30;;;;;;8309333;28;20076;-82
2022/09/02 12:39:22;;;;;;;2.33;2.08;;;29.00;92.10;;;;;;8296927;28;20034;-83
2022/09/02 12:43:27;;;;;;;2.20;2.00;;;30.60;87.00;;;;;;8289865;28;20507;-83
2022/09/02 12:47:39;;;;;;;4.18;2.10;;;28.90;89.60;;;;;;8274165;28;20403;-83
2022/09/02 12:51:56;;;;;;;3.17;1.73;;;30.00;82.20;;;;;;8297055;28;20026;-82
2022/09/02 12:56:02;;;;;;;4.32;1.88;;;29.80;75.20;;;;;;8277765;28;20109;-84
2022/09/02 13:00:03;;;;;;;3.10;2.00;;;30.00;80.90;;;;;;8290034;28;20484;-83
2022/09/02 13:04:31;;;;;;;2.08;1.70;;;29.60;78.40;;;;;;8301569;28;20021;-81
2022/09/02 13:08:38;;;;;;;2.88;1.73;;;30.00;78.10;;;;;;8288445;28;20036;-82
2022/09/02 13:13:27;;;;;;;1.70;1.60;;;29.60;79.00;;;;;;8299572;28;20033;-82
2022/09/02 13:17:46;;;;;;;1.70;1.60;;;30.20;73.30;;;;;;8243559;28;20079;-81
2022/09/02 13:22:18;;;;;;;1.83;1.50;;;31.20;71.90;;;;;;8289773;28;20083;-80
2022/09/02 13:26:41;;;;;;;5.30;2.08;;;32.40;67.40;;;;;;8314033;28;20022;-81
2022/09/02 13:30:50;;;;;;;2.35;1.60;;;31.90;64.60;;;;;;8312038;28;20026;-82
2022/09/02 13:34:54;;;;;;;4.05;1.85;;;31.20;72.10;;;;;;8310695;28;20514;-82
2022/09/02 13:38:55;;;;;;;3.45;2.13;;;30.30;74.30;;;;;;8315649;28;20021;-83
2022/09/02 13:42:57;;;;;;;2.47;1.65;;;29.40;76.10;;;;;;8326665;28;20021;-83
2022/09/02 13:47:21;;;;;;;2.30;1.83;;;29.90;72.80;;;;;;8289113;28;20015;-82
2022/09/02 13:51:21;;;;;;;3.22;1.90;;;31.90;66.50;;;;;;8326883;28;20017;-82
2022/09/02 13:55:23;;;;;;;2.30;1.83;;;31.30;66.30;;;;;;8306887;28;20068;-81
2022/09/02 13:59:48;;;;;;;2.28;1.58;;;31.90;66.30;;;;;;8292294;28;20400;-83
2022/09/02 14:03:51;;;;;;;1.67;1.52;;;33.30;61.00;;;;;;8313014;28;20030;-82
2022/09/02 14:07:56;;;;;;;2.08;1.58;;;33.10;62.70;;;;;;8316212;28;20022;-83
2022/09/02 14:11:59;;;;;;;5.72;1.58;;;34.00;59.00;;;;;;8297988;28;20037;-81
2022/09/02 14:16:26;;;;;;;2.33;1.77;;;33.60;56.70;;;;;;8315323;28;20018;-82
2022/09/02 14:20:26;;;;;;;1.98;1.50;;;32.50;64.10;;;;;;8324477;28;20061;-82
2022/09/02 14:24:28;;;;;;;2.53;1.60;;;31.40;64.10;;;;;;8333380;28;20462;-82
2022/09/02 14:28:32;;;;;;;1.70;1.60;;;31.50;64.70;;;;;;8305323;28;20089;-81
2022/09/02 14:32:33;;;;;;;2.55;1.40;;;33.00;64.70;;;;;;8306310;28;20025;-82
2022/09/02 14:36:37;;;;;;;2.13;1.50;;;31.40;62.60;;;;;;8302506;28;20021;-81
2022/09/02 14:40:42;;;;;;;4.20;1.40;;;31.20;64.10;;;;;;8327465;28;20499;-82
2022/09/02 14:44:45;;;;;;;1.90;1.60;;;32.10;60.90;;;;;;8286987;28;20183;-81
2022/09/02 14:48:57;;;;;;;1.55;1.30;;;32.70;60.30;;;;;;8309750;28;20091;-82
2022/09/02 14:53:02;;;;;;;1.73;1.42;;;32.40;60.80;;;;;;8306111;28;20022;-81
2022/09/02 14:57:04;;;;;;;3.28;1.40;;;30.90;64.90;;;;;;8290815;28;20028;-82
2022/09/02 15:01:07;;;;;;;17.33;4.25;;;28.20;69.50;;;;;;8312223;28;20026;-82
2022/09/02 15:05:12;;;;;;;2.13;1.65;;;25.70;78.50;;;;;;8275240;28;20038;-82
2022/09/02 15:09:14;;;;;;;3.78;1.55;;;24.40;80.60;;;;;;8306971;28;20083;-82
2022/09/02 15:13:26;;;;;;;2.17;1.48;;;23.80;84.00;;;;;;8275148;28;20053;-82
2022/09/02 15:17:28;;;;;;;1.70;1.40;;;23.50;87.30;;;;;;8299483;28;20061;-81
2022/09/02 15:21:28;;;;;;;1.95;1.52;;;23.20;90.00;;;;;;8278512;28;20087;-82
2022/09/02 15:25:29;;;;;;;4.70;1.65;;;22.90;89.80;;;;;;8311219;28;20029;-81
2022/09/02 15:29:30;;;;;;;3.13;1.63;;;23.20;90.80;;;;;;8290145;28;20038;-81
2022/09/02 15:33:31;;;;;;;3.65;1.25;;;25.00;84.40;;;;;;8278166;28;20025;-80
2022/09/02 15:37:36;;;;;;;1.60;1.40;;;27.20;77.20;;;;;;8266916;28;20408;-81
2022/09/02 15:41:36;;;;;;;1.73;1.45;;;28.50;74.00;;;;;;8298803;28;20479;-83
2022/09/02 15:45:47;;;;;;;1.90;1.50;;;29.80;71.30;;;;;;8302037;28;20029;-83
2022/09/02 15:49:50;;;;;;;3.15;1.50;;;30.80;65.50;;;;;;8288942;28;20054;-82
2022/09/02 15:53:56;;;;;;;2.13;1.50;;;30.30;62.60;;;;;;8293576;28;20022;-82
2022/09/02 15:57:56;;;;;;;1.83;1.30;;;31.70;63.10;;;;;;8267828;28;20031;-83
2022/09/02 16:01:58;;;;;;;1.80;1.33;;;32.80;62.80;;;;;;8289196;28;20061;-83
2022/09/02 16:06:03;;;;;;;2.40;1.27;;;30.00;66.30;;;;;;8269027;28;20395;-83
2022/09/02 16:10:04;;;;;;;1.95;1.50;;;25.70;79.50;;;;;;8308904;28;20033;-82
2022/09/02 16:14:05;;;;;;;1.83;1.30;;;23.50;86.60;;;;;;8299283;28;20026;-82
2022/09/02 16:18:05;;;;;;;2.30;1.73;;;22.30;88.50;;;;;;8300512;28;20025;-82
2022/09/02 16:22:06;;;;;;;3.53;1.67;;;21.90;91.30;;;;;;8315234;28;20030;-82
2022/09/02 16:26:27;;;;;;;3.45;1.50;;;21.40;94.00;;;;;;8257001;28;20044;-82
2022/09/02 16:30:29;;;;;;;5.68;1.60;;;20.80;94.70;;;;;;8292157;28;20071;-83
2022/09/02 16:34:29;;;;;;;2.17;1.50;;;20.60;96.10;;;;;;8301635;28;20025;-82
2022/09/02 16:38:30;;;;;;;1.70;1.40;;;20.50;97.50;;;;;;8285828;28;20041;-82
2022/09/02 16:42:30;;;;;;;4.25;1.90;;;20.40;98.90;;;;;;8273635;28;20029;-83
2022/09/02 16:46:32;;;;;;;1.90;1.38;;;20.40;99.90;;;;;;8270712;28;20546;-82
2022/09/02 16:50:32;;;;;;;2.80;1.40;;;20.30;99.90;;;;;;8272206;28;20028;-82
2022/09/02 16:54:33;;;;;;;1.83;1.60;;;20.20;99.90;;;;;;8279953;28;20038;-82
2022/09/02 16:58:33;;;;;;;6.05;1.70;;;20.10;99.90;;;;;;8266708;28;20030;-82
2022/09/02 17:02:34;;;;;;;2.70;1.67;;;19.80;99.90;;;;;;8279842;28;20029;-82
2022/09/02 17:06:35;;;;;;;1.55;1.45;;;19.70;99.90;;;;;;8275030;28;20045;-82
2022/09/02 17:10:35;;;;;;;2.65;1.55;;;19.40;99.90;;;;;;8271987;28;20094;-83
2022/09/02 17:14:36;;;;;;;1.98;1.40;;;19.10;99.90;;;;;;8275755;28;20030;-83
2022/09/02 17:18:37;;;;;;;2.05;1.75;;;18.80;99.90;;;;;;8291287;28;20035;-82
2022/09/02 17:22:38;;;;;;;2.13;1.55;;;18.40;99.90;;;;;;8257194;28;20021;-83
2022/09/02 17:26:41;;;;;;;3.03;1.77;;;18.10;99.90;;;;;;8290890;28;20023;-82
2022/09/02 17:30:42;;;;;;;2.95;1.80;;;17.80;99.90;;;;;;8296451;28;20029;-83
2022/09/02 17:34:43;;;;;;;3.38;1.77;;;17.60;99.90;;;;;;8292488;28;20030;-83
2022/09/02 17:38:44;;;;;;;2.58;1.88;;;17.60;99.90;;;;;;8274206;28;20045;-82
2022/09/02 17:42:45;;;;;;;3.38;2.05;;;17.50;99.90;;;;;;8272831;28;20040;-82
2022/09/02 17:46:46;;;;;;;2.08;1.90;;;17.30;99.90;;;;;;8286062;28;20026;-82
2022/09/02 17:50:46;;;;;;;2.28;1.70;;;17.00;99.90;;;;;;8308455;28;20032;-81
2022/09/02 17:54:49;;;;;;;2.50;1.67;;;16.80;99.90;;;;;;8291322;28;20025;-81
2022/09/02 17:58:55;;;;;;;3.13;1.95;;;16.60;99.90;;;;;;8309146;28;20037;-81
2022/09/02 18:03:18;;;;;;;3.35;1.83;;;16.70;99.90;;;;;;8292272;28;20026;-82
2022/09/02 18:07:41;;;;;;;1.90;1.80;;;16.70;99.90;;;;;;8309514;28;20400;-82
2022/09/02 18:11:42;;;;;;;3.30;1.98;;;16.80;99.90;;;;;;8293608;28;20126;-82
2022/09/02 18:15:57;;;;;;;2.30;1.77;;;16.70;99.90;;;;;;8289425;28;20081;-82
2022/09/02 18:20:03;;;;;;;2.00;1.80;;;16.60;99.90;;;;;;8290988;28;20026;-83
2022/09/02 18:24:26;;;;;;;2.50;2.00;;;16.50;99.90;;;;;;8289569;28;20025;-82
2022/09/02 18:28:51;;;;;;;4.53;1.85;;;16.30;99.90;;;;;;8294470;28;20228;-81
2022/09/02 18:33:31;;;;;;;4.47;1.73;;;16.10;99.90;;;;;;8301714;28;20021;-82
2022/09/02 18:38:12;;;;;;;2.30;2.00;;;16.10;99.90;;;;;;8288960;28;20038;-82
2022/09/02 18:42:49;;;;;;;3.13;2.03;;;16.20;99.90;;;;;;8318816;28;20531;-80
2022/09/02 18:47:00;;;;;;;2.05;1.77;;;16.10;99.90;;;;;;8304273;28;20109;-82
2022/09/02 18:51:11;;;;;;;2.22;1.88;;;15.90;99.90;;;;;;8296851;28;20025;-83
2022/09/02 18:55:14;;;;;;;;;;;15.90;99.90;;;;;;8310613;28;20487;-81
2022/09/02 18:59:21;;;;;;;2.10;1.90;;;15.70;99.90;;;;;;8301913;28;19916;-81
2022/09/02 19:03:22;;;;;;;2.13;1.90;;;15.60;99.90;;;;;;8298867;28;20021;-81
2022/09/02 19:11:41;;;;;;;2.97;1.92;;;15.10;99.90;;;;;;8287632;28;20036;-80
2022/09/02 19:15:42;;;;;;;2.30;2.10;;;15.10;99.90;;;;;;8318355;28;20029;-81
2022/09/02 19:19:43;;;;;;;3.50;2.05;;;15.20;99.90;;;;;;8297605;28;20497;-81
2022/09/02 19:23:44;;;;;;;7.43;2.03;;;15.00;99.90;;;;;;8308874;28;20029;-81
2022/09/02 19:27:47;;;;;;;2.63;2.03;;;14.80;99.90;;;;;;8315459;28;20025;-81
2022/09/02 19:31:49;;;;;;;4.05;1.90;;;15.00;99.90;;;;;;8312596;28;20056;-82
2022/09/02 19:35:50;;;;;;;2.38;1.70;;;15.00;99.90;;;;;;8291123;28;20029;-81
2022/09/02 19:39:52;;;;;;;2.47;1.90;;;15.10;99.90;;;;;;8315621;28;20017;-83
2022/09/02 19:43:53;;;;;;;4.70;1.73;;;15.40;99.90;;;;;;8317692;28;20063;-82
2022/09/02 19:47:54;;;;;;;3.03;2.08;;;15.30;99.90;;;;;;8294444;28;20025;-83
2022/09/02 19:51:55;;;;;;;3.00;2.28;;;15.10;99.90;;;;;;8302078;28;20104;-83
2022/09/02 19:55:57;;;;;;;5.95;1.65;;;15.00;99.90;;;;;;8301153;28;20045;-82
2022/09/02 19:59:58;;;;;;;6.10;2.17;;;14.90;99.90;;;;;;8312516;28;20081;-82
2022/09/02 20:03:58;;;;;;;3.40;2.08;;;15.00;99.90;;;;;;8304557;28;20080;-81
2022/09/02 20:07:59;;;;;;;2.47;2.00;;;15.20;99.90;;;;;;8307285;28;20368;-82
2022/09/02 20:11:59;;;;;;;5.35;1.85;;;15.10;99.90;;;;;;8318044;28;20041;-82
2022/09/02 20:16:01;;;;;;;3.08;2.13;;;15.10;99.90;;;;;;8294737;28;20026;-82
2022/09/02 20:20:17;;;;;;;2.75;2.15;;;15.30;99.90;;;;;;8292545;28;20022;-81
2022/09/02 20:24:26;;;;;;;1.98;1.77;;;15.30;99.90;;;;;;8296343;28;20018;-82
2022/09/02 20:28:58;;;;;;;2.15;1.95;;;15.20;99.90;;;;;;8310621;28;20594;-82
2022/09/02 20:33:16;;;;;;;3.63;1.98;;;15.30;99.90;;;;;;8292814;28;20030;-83
2022/09/02 20:37:50;;;;;;;1.70;1.42;;;15.40;99.90;;;;;;8311981;28;20029;-82
2022/09/02 20:41:54;;;;;;;2.03;1.58;;;15.70;99.90;;;;;;8316715;28;20022;-82
2022/09/02 20:46:14;;;;;;;3.95;1.50;;;15.70;99.90;;;;;;8311013;28;20053;-83
2022/09/02 20:50:17;;;;;;;2.13;1.35;;;15.90;99.90;;;;;;8308660;28;20128;-83
2022/09/02 20:54:41;;;;;;;3.63;1.70;;;16.00;99.90;;;;;;8321876;28;20021;-82
2022/09/02 20:58:49;;;;;;;3.13;1.55;;;16.20;99.90;;;;;;8314894;28;20033;-83
2022/09/02 21:02:54;;;;;;;2.80;1.58;;;16.10;99.90;;;;;;8287532;28;20082;-82
2022/09/02 21:07:13;;;;;;;2.13;1.70;;;16.00;99.90;;;;;;8299289;28;20068;-82
2022/09/02 21:11:14;;;;;;;1.98;1.67;;;15.80;99.90;;;;;;8301933;28;20033;-81
2022/09/02 21:15:29;;;;;;;1.83;1.45;;;16.00;99.90;;;;;;8301210;28;20018;-82
2022/09/02 21:19:35;;;;;;;2.08;1.48;;;15.80;99.90;;;;;;8297030;28;20025;-81
2022/09/02 21:23:45;;;;;;;2.30;1.83;;;15.70;99.90;;;;;;8324655;28;20029;-83
2022/09/02 21:27:51;;;;;;;3.33;1.87;;;15.70;99.90;;;;;;8305433;28;20627;-82